Blanco, Texas
Current Conditions -  °F | °C
As of 12:35 AM on Friday 31 Oct 2014 (Local Time) from KDZB Reporting Station
Thunderstorm Thunderstorm  
Wind Chill: 66°   Ceiling: 5000
Heat Index: 66°   Visibility: 10mi
Dew Point: 66°   Wind: 3mph
Humidity: 100%   Direction: 130°SE
Pressure: 30.14"   Gusts: NA
Location:  30.1°N, 98.42°W
Report Text: KDZB 310535Z AUTO 13003KT 10SM TS BKN050 BKN060 OVC075 19/19 A3014 RMK AO2 LTG DSNT SE THRU W T01880188
Loading
Personal Weather Stations






























Interactive Weather Map New forecast layout! Learn more

10-Day Weather Forecast

Advertisements
Track Severe Weather on mobile